createdAt,value
2018-02-23T00:02:26.612Z,8.43
2018-02-23T00:04:55.193Z,6.53
2018-02-23T00:07:23.723Z,8.25
2018-02-23T00:09:52.027Z,7.82
2018-02-23T00:12:21.146Z,6.75
2018-02-23T00:14:49.505Z,6.97
2018-02-23T00:17:17.822Z,8.35
2018-02-23T00:19:47.004Z,6.30
2018-02-23T00:22:15.348Z,7.40
2018-02-23T00:24:44.501Z,6.78
2018-02-23T00:27:12.967Z,7.47
2018-02-23T00:29:41.396Z,6.93
2018-02-23T00:32:10.467Z,9.20
2018-02-23T00:34:38.999Z,6.28
2018-02-23T00:37:07.306Z,7.57
2018-02-23T00:39:35.657Z,7.20
2018-02-23T00:42:03.964Z,7.62
2018-02-23T00:44:32.261Z,6.65
2018-02-23T00:47:00.589Z,7.18
2018-02-23T00:49:28.915Z,8.75
2018-02-23T00:51:57.241Z,6.53
2018-02-23T00:54:25.557Z,6.37
2018-02-23T00:56:54.003Z,6.87
2018-02-23T00:59:22.313Z,7.97
2018-02-23T01:01:50.812Z,8.05
2018-02-23T01:04:19.887Z,7.70
2018-02-23T01:06:48.295Z,7.03
2018-02-23T01:09:16.645Z,7.57
2018-02-23T01:11:45.013Z,7.10
2018-02-23T01:14:14.140Z,7.60
2018-02-23T01:16:43.241Z,6.93
2018-02-23T01:19:12.427Z,8.20
2018-02-23T01:21:40.813Z,6.93
2018-02-23T01:24:10.048Z,8.20
2018-02-23T01:26:38.330Z,6.95
2018-02-23T01:29:06.668Z,7.35
2018-02-23T01:31:35.003Z,7.85
2018-02-23T01:34:03.557Z,7.20
2018-02-23T01:36:32.979Z,7.53
2018-02-23T01:39:01.375Z,7.50
2018-02-23T01:41:29.692Z,7.43
2018-02-23T01:43:58.083Z,7.45
2018-02-23T01:46:26.570Z,7.65
2018-02-23T01:48:54.962Z,8.20
2018-02-23T01:51:23.568Z,7.12
2018-02-23T01:53:53.766Z,6.93
2018-02-23T01:56:22.141Z,7.50
2018-02-23T01:58:50.564Z,8.95
2018-02-23T02:01:19.663Z,8.35
2018-02-23T02:03:48.768Z,8.15
2018-02-23T02:06:17.933Z,7.90
2018-02-23T02:08:47.043Z,7.85
2018-02-23T02:11:15.385Z,8.73
2018-02-23T02:13:43.738Z,9.40
2018-02-23T02:16:13.004Z,7.40
2018-02-23T02:18:42.121Z,7.80
2018-02-23T02:21:10.425Z,7.65
2018-02-23T02:23:38.752Z,7.97
2018-02-23T02:26:07.079Z,8.30
2018-02-23T02:28:35.403Z,8.18
2018-02-23T02:31:03.747Z,8.32
2018-02-23T02:33:33.552Z,7.57
2018-02-23T02:36:02.001Z,9.68
2018-02-23T02:38:30.380Z,8.77
2018-02-23T02:40:58.756Z,7.28
2018-02-23T02:43:27.085Z,9.05
2018-02-23T02:45:56.187Z,7.47
2018-02-23T02:48:25.289Z,8.10
2018-02-23T02:50:53.624Z,8.55
2018-02-23T02:53:21.949Z,8.43
2018-02-23T02:55:50.419Z,8.23
2018-02-23T02:58:18.865Z,8.82
2018-02-23T03:00:47.207Z,8.75
2018-02-23T03:03:15.531Z,9.57
2018-02-23T03:05:43.853Z,9.10
2018-02-23T03:08:12.183Z,9.10
2018-02-23T03:10:41.323Z,8.82
2018-02-23T03:13:09.659Z,8.07
2018-02-23T03:15:39.112Z,8.65
2018-02-23T03:18:07.568Z,9.18
2018-02-23T03:20:35.902Z,11.05
2018-02-23T03:23:04.219Z,8.38
2018-02-23T03:25:32.770Z,8.75
2018-02-23T03:28:01.219Z,9.80
2018-02-23T03:30:29.522Z,8.48
2018-02-23T03:32:57.848Z,9.30
2018-02-23T03:35:26.940Z,8.70
2018-02-23T03:37:55.277Z,9.70
2018-02-23T03:40:24.441Z,9.02
2018-02-23T03:42:52.747Z,10.43
2018-02-23T03:45:21.963Z,9.13
2018-02-23T03:47:50.307Z,10.68
2018-02-23T03:50:18.654Z,8.65
2018-02-23T03:52:47.015Z,9.25
2018-02-23T03:55:15.619Z,10.15
2018-02-23T03:57:44.391Z,9.77
2018-02-23T04:00:12.700Z,9.95
2018-02-23T04:02:41.043Z,10.20
2018-02-23T04:05:09.401Z,8.02
2018-02-23T04:07:38.514Z,8.95
2018-02-23T04:10:06.931Z,9.63
2018-02-23T04:12:35.274Z,10.13
2018-02-23T04:15:03.607Z,9.38
2018-02-23T04:17:32.698Z,9.63
2018-02-23T04:20:01.883Z,10.80
2018-02-23T04:22:30.967Z,9.73
2018-02-23T04:25:00.986Z,9.48
2018-02-23T04:27:30.140Z,9.10
2018-02-23T04:29:58.487Z,9.70
2018-02-23T04:32:27.622Z,10.25
2018-02-23T04:34:55.965Z,10.20
2018-02-23T04:37:24.318Z,9.38
2018-02-23T04:39:53.405Z,10.80
2018-02-23T04:42:21.715Z,9.30
2018-02-23T04:44:50.129Z,10.27
2018-02-23T04:47:18.463Z,10.30
2018-02-23T04:49:46.887Z,9.73
2018-02-23T04:52:15.203Z,9.85
2018-02-23T04:54:44.407Z,9.98
2018-02-23T04:57:12.726Z,11.60
2018-02-23T04:59:41.231Z,9.48
2018-02-23T05:02:09.539Z,11.65
2018-02-23T05:04:38.846Z,10.27
2018-02-23T05:07:07.195Z,10.00
2018-02-23T05:09:36.315Z,10.57
2018-02-23T05:12:05.577Z,10.93
2018-02-23T05:14:33.914Z,12.48
2018-02-23T05:17:02.260Z,11.63
2018-02-23T05:19:31.347Z,12.07
2018-02-23T05:22:00.586Z,11.00
2018-02-23T05:24:28.918Z,11.43
2018-02-23T05:26:58.078Z,11.50
2018-02-23T05:29:26.410Z,11.48
2018-02-23T05:31:54.734Z,11.50
2018-02-23T05:34:23.062Z,12.00
2018-02-23T05:36:51.406Z,12.05
2018-02-23T05:39:19.849Z,11.52
2018-02-23T05:41:48.171Z,11.90
2018-02-23T05:44:17.571Z,11.90
2018-02-23T05:46:46.003Z,11.80
2018-02-23T05:49:14.360Z,13.05
2018-02-23T05:51:43.444Z,11.68
2018-02-23T05:54:11.808Z,11.20
2018-02-23T05:56:40.252Z,12.43
2018-02-23T05:59:08.566Z,11.60
2018-02-23T06:01:37.686Z,12.65
2018-02-23T06:04:06.002Z,13.25
2018-02-23T06:06:34.326Z,11.75
2018-02-23T06:09:02.831Z,13.73
2018-02-23T06:11:31.290Z,11.30
2018-02-23T06:13:59.650Z,12.75
2018-02-23T06:16:28.119Z,12.57
2018-02-23T06:19:03.458Z,12.02
2018-02-23T06:21:32.116Z,12.52
2018-02-23T06:24:00.497Z,13.05
2018-02-23T06:26:30.096Z,12.37
2018-02-23T06:28:58.481Z,13.18
2018-02-23T06:31:26.834Z,13.40
2018-02-23T06:33:55.173Z,12.50
2018-02-23T06:36:23.493Z,12.68
2018-02-23T06:38:51.957Z,13.13
2018-02-23T06:41:20.413Z,14.40
2018-02-23T06:43:48.818Z,12.30
2018-02-23T06:46:17.967Z,12.13
2018-02-23T06:48:47.756Z,15.68
2018-02-23T06:51:16.092Z,15.07
2018-02-23T06:53:44.425Z,13.43
2018-02-23T06:56:12.882Z,12.90
2018-02-23T06:58:41.949Z,14.75
2018-02-23T07:01:10.324Z,13.10
2018-02-23T07:03:38.837Z,13.80
2018-02-23T07:06:07.218Z,14.52
2018-02-23T07:08:35.546Z,13.93
2018-02-23T07:11:03.915Z,12.80
2018-02-23T07:13:32.429Z,15.65
2018-02-23T07:16:00.835Z,14.93
2018-02-23T07:18:30.051Z,14.85
2018-02-23T07:20:59.409Z,15.30
2018-02-23T07:23:27.911Z,15.50
2018-02-23T07:25:56.707Z,13.77
2018-02-23T07:28:25.269Z,14.27
2018-02-23T07:30:53.744Z,15.45
2018-02-23T07:33:22.603Z,13.82
2018-02-23T07:35:52.022Z,13.65
2018-02-23T07:38:21.194Z,13.02
2018-02-23T07:40:49.504Z,15.50
2018-02-23T07:43:17.837Z,14.27
2018-02-23T07:45:46.172Z,14.50
2018-02-23T07:48:15.347Z,14.32
2018-02-23T07:50:43.757Z,14.30
2018-02-23T07:53:12.837Z,14.85
2018-02-23T07:55:41.183Z,16.10
2018-02-23T07:58:09.561Z,14.07
2018-02-23T08:00:43.372Z,14.45
2018-02-23T08:03:11.835Z,14.60
2018-02-23T08:05:40.166Z,15.05
2018-02-23T08:08:09.301Z,14.13
2018-02-23T08:10:37.819Z,15.02
2018-02-23T08:13:06.179Z,16.35
2018-02-23T08:15:34.526Z,15.35
2018-02-23T08:18:02.853Z,14.95
2018-02-23T08:20:32.194Z,17.05
2018-02-23T08:23:00.971Z,14.50
2018-02-23T08:25:30.409Z,17.02
2018-02-23T08:27:59.607Z,14.82
2018-02-23T08:30:28.101Z,16.02
2018-02-23T08:32:56.406Z,17.15
2018-02-23T08:35:26.263Z,18.05
2018-02-23T08:37:54.677Z,17.55
2018-02-23T08:40:23.283Z,16.70
2018-02-23T08:42:52.683Z,15.32
2018-02-23T08:45:21.171Z,14.00
2018-02-23T08:47:49.746Z,16.73
2018-02-23T08:50:19.423Z,16.55
2018-02-23T08:52:48.356Z,15.30
2018-02-23T08:55:17.699Z,15.60
2018-02-23T08:57:46.559Z,17.85
2018-02-23T09:00:21.005Z,16.58
2018-02-23T09:02:50.075Z,16.10
2018-02-23T09:05:19.058Z,15.95
2018-02-23T09:07:48.648Z,17.58
2018-02-23T09:10:18.075Z,19.25
2018-02-23T09:12:46.461Z,17.40
2018-02-23T09:15:15.167Z,18.95
2018-02-23T09:17:44.371Z,16.17
2018-02-23T09:20:12.940Z,16.80
2018-02-23T09:22:41.391Z,18.48
2018-02-23T09:25:10.423Z,17.50
2018-02-23T09:27:39.424Z,16.95
2018-02-23T09:30:07.802Z,18.58
2018-02-23T09:32:39.456Z,17.62
2018-02-23T09:35:07.940Z,17.80
2018-02-23T09:37:36.553Z,19.58
2018-02-23T09:40:05.382Z,18.58
2018-02-23T09:42:34.681Z,19.17
2018-02-23T09:45:03.490Z,18.05
2018-02-23T09:47:31.997Z,18.15
2018-02-23T09:50:01.499Z,18.92
2018-02-23T09:52:30.151Z,19.37
2018-02-23T09:54:58.795Z,18.80
2018-02-23T09:57:27.315Z,20.00
2018-02-23T09:59:56.884Z,18.23
2018-02-23T10:02:26.086Z,18.50
2018-02-23T10:04:54.490Z,18.60
2018-02-23T10:07:23.722Z,19.60
2018-02-23T10:09:52.277Z,18.92
2018-02-23T10:12:20.740Z,20.37
2018-02-23T10:14:49.114Z,19.50
2018-02-23T10:17:17.699Z,20.23
2018-02-23T10:19:47.177Z,19.33
2018-02-23T10:22:16.402Z,19.42
2018-02-23T10:24:44.991Z,19.20
2018-02-23T10:27:14.071Z,18.95
2018-02-23T10:29:42.518Z,18.37
2018-02-23T10:32:11.838Z,19.67
2018-02-23T10:34:40.433Z,17.25
2018-02-23T10:37:08.756Z,21.60
2018-02-23T10:39:37.078Z,24.70
2018-02-23T10:42:05.569Z,18.25
2018-02-23T10:44:34.360Z,18.62
2018-02-23T10:47:02.697Z,18.62
2018-02-23T10:49:31.793Z,19.33
2018-02-23T10:52:00.892Z,19.20
2018-02-23T10:54:29.481Z,19.67
2018-02-23T10:56:58.251Z,19.10
2018-02-23T10:59:27.878Z,18.45
2018-02-23T11:01:56.382Z,18.50
2018-02-23T11:04:25.163Z,18.08
2018-02-23T11:06:55.256Z,17.70
2018-02-23T11:09:23.633Z,19.08
2018-02-23T11:11:53.096Z,16.70
2018-02-23T11:14:21.437Z,18.37
2018-02-23T11:16:50.016Z,17.90
2018-02-23T11:19:18.573Z,16.17
2018-02-23T11:21:46.920Z,17.40
2018-02-23T11:24:15.758Z,17.67
2018-02-23T11:26:44.162Z,17.92
2018-02-23T11:29:12.734Z,17.87
2018-02-23T11:31:42.331Z,18.65
2018-02-23T11:34:11.834Z,18.58
2018-02-23T11:36:40.648Z,17.65
2018-02-23T11:39:09.106Z,17.40
2018-02-23T11:41:37.654Z,18.00
2018-02-23T11:44:06.230Z,16.75
2018-02-23T11:46:35.564Z,17.27
2018-02-23T11:49:04.035Z,18.17
2018-02-23T11:51:32.628Z,18.42
2018-02-23T11:54:01.330Z,18.70
2018-02-23T11:56:30.125Z,17.95
2018-02-23T11:58:58.570Z,17.60
2018-02-23T12:01:27.219Z,16.52
2018-02-23T12:03:55.692Z,16.12
2018-02-23T12:06:25.013Z,18.42
2018-02-23T12:08:53.429Z,17.05
2018-02-23T12:11:22.067Z,17.25
2018-02-23T12:13:50.661Z,18.25
2018-02-23T12:16:19.403Z,16.42
2018-02-23T12:18:48.534Z,18.05
2018-02-23T12:21:17.968Z,17.55
2018-02-23T12:23:46.597Z,17.48
2018-02-23T12:26:15.078Z,18.87
2018-02-23T12:28:44.269Z,17.17
2018-02-23T12:31:12.703Z,17.87
2018-02-23T12:33:42.043Z,17.35
2018-02-23T12:36:10.804Z,17.45
2018-02-23T12:38:40.534Z,16.85
2018-02-23T12:41:09.409Z,19.23
2018-02-23T12:43:38.562Z,17.77
2018-02-23T12:46:07.241Z,16.75
2018-02-23T12:48:35.946Z,19.17
2018-02-23T12:51:04.799Z,16.58
2018-02-23T12:53:33.246Z,16.92
2018-02-23T12:56:02.228Z,16.83
2018-02-23T12:58:31.473Z,17.67
2018-02-23T13:01:00.042Z,19.27
2018-02-23T13:03:32.570Z,19.17
2018-02-23T13:06:01.226Z,18.10
2018-02-23T13:08:29.729Z,17.12
2018-02-23T13:10:58.240Z,17.35
2018-02-23T13:13:26.649Z,17.62
2018-02-23T13:15:55.901Z,16.25
2018-02-23T13:18:24.618Z,17.45
2018-02-23T13:20:52.982Z,18.02
2018-02-23T13:23:22.213Z,17.00
2018-02-23T13:25:51.082Z,18.12
2018-02-23T13:28:25.199Z,17.05
2018-02-23T13:30:55.397Z,16.85
2018-02-23T13:33:23.923Z,16.52
2018-02-23T13:35:52.379Z,17.12
2018-02-23T13:38:20.988Z,18.27
2018-02-23T13:40:55.234Z,17.85
2018-02-23T13:43:23.869Z,15.85
2018-02-23T13:45:52.432Z,16.77
2018-02-23T13:48:20.954Z,17.15
2018-02-23T13:50:50.019Z,18.10
2018-02-23T13:53:21.175Z,19.33
2018-02-23T13:55:49.933Z,16.52
2018-02-23T13:58:18.351Z,17.30
2018-02-23T14:00:47.099Z,17.62
2018-02-23T14:03:15.877Z,15.00
2018-02-23T14:05:47.538Z,15.75
2018-02-23T14:08:16.943Z,16.33
2018-02-23T14:13:27.063Z,17.02
2018-02-23T14:15:57.146Z,15.20
2018-02-23T14:18:26.618Z,16.33
2018-02-23T14:20:55.924Z,15.68
2018-02-23T14:23:26.377Z,17.20
2018-02-23T14:25:55.122Z,15.40
2018-02-23T14:28:23.966Z,14.18
2018-02-23T14:30:52.956Z,16.45
2018-02-23T14:33:22.417Z,14.57
2018-02-23T14:35:51.213Z,15.10
2018-02-23T14:38:20.445Z,13.27
2018-02-23T14:40:50.739Z,13.47
2018-02-23T14:43:25.029Z,13.68
2018-02-23T14:45:54.387Z,15.73
2018-02-23T14:48:42.213Z,14.80
2018-02-23T14:51:12.958Z,12.60
2018-02-23T14:53:43.415Z,15.52
2018-02-23T14:56:12.980Z,14.50
2018-02-23T14:58:42.598Z,13.55
2018-02-23T15:01:12.580Z,13.62
2018-02-23T15:03:41.837Z,14.05
2018-02-23T15:06:10.221Z,14.48
2018-02-23T15:08:38.783Z,13.20
2018-02-23T15:11:08.345Z,13.30
2018-02-23T15:13:38.225Z,13.60
2018-02-23T15:16:06.727Z,13.75
2018-02-23T15:18:35.880Z,13.68
2018-02-23T15:21:04.627Z,14.38
2018-02-23T15:23:34.474Z,12.35
2018-02-23T15:26:03.142Z,14.10
2018-02-23T15:28:31.818Z,14.32
2018-02-23T15:31:17.739Z,13.80
2018-02-23T15:33:46.624Z,14.10
2018-02-23T15:36:14.995Z,15.00
2018-02-23T15:38:43.582Z,14.43
2018-02-23T15:41:12.279Z,14.48
2018-02-23T15:43:40.895Z,14.45
2018-02-23T15:46:10.240Z,14.13
2018-02-23T15:48:40.144Z,13.13
2018-02-23T15:51:14.365Z,14.48
2018-02-23T15:53:44.514Z,13.85
2018-02-23T15:56:13.239Z,15.73
2018-02-23T15:58:44.920Z,13.55
2018-02-23T16:01:13.246Z,14.57
2018-02-23T16:03:41.745Z,13.93
2018-02-23T16:06:10.860Z,12.23
2018-02-23T16:08:40.190Z,15.93
2018-02-23T16:11:08.779Z,14.40
2018-02-23T16:13:37.733Z,14.30
2018-02-23T16:16:07.795Z,14.60
2018-02-23T16:18:37.480Z,14.52
2018-02-23T16:21:06.385Z,14.05
2018-02-23T16:23:35.136Z,13.82
2018-02-23T16:26:03.670Z,14.20
2018-02-23T16:28:35.161Z,16.42
2018-02-23T16:31:03.794Z,14.20
2018-02-23T16:33:33.308Z,15.20
2018-02-23T16:36:03.340Z,14.85
2018-02-23T16:38:32.018Z,12.68
2018-02-23T16:41:00.600Z,14.60
2018-02-23T16:43:29.940Z,14.65
2018-02-23T16:45:58.876Z,15.35
2018-02-23T16:48:28.668Z,14.57
2018-02-23T16:50:57.455Z,15.32
2018-02-23T16:53:27.404Z,15.98
2018-02-23T16:55:57.809Z,15.52
2018-02-23T16:58:26.342Z,12.82
2018-02-23T17:00:54.884Z,14.87
2018-02-23T17:03:23.820Z,13.10
2018-02-23T17:05:52.227Z,15.68
2018-02-23T17:08:20.688Z,13.60
2018-02-23T17:10:49.403Z,13.68
2018-02-23T17:13:18.218Z,14.80
2018-02-23T17:15:46.820Z,13.77
2018-02-23T17:18:15.229Z,13.23
2018-02-23T17:20:43.550Z,13.50
2018-02-23T17:23:11.921Z,13.90
2018-02-23T17:25:40.599Z,14.35
2018-02-23T17:28:09.155Z,13.98
2018-02-23T17:30:37.616Z,14.90
2018-02-23T17:33:06.457Z,17.45
2018-02-23T17:35:34.995Z,15.20
2018-02-23T17:38:05.028Z,13.80
2018-02-23T17:40:33.611Z,14.18
2018-02-23T17:43:02.860Z,16.20
2018-02-23T17:45:32.061Z,15.57
2018-02-23T17:48:01.386Z,12.70
2018-02-23T17:50:30.029Z,12.77
2018-02-23T17:52:59.394Z,15.50
2018-02-23T17:55:27.749Z,12.45
2018-02-23T17:57:56.112Z,13.65
2018-02-23T18:00:24.822Z,13.07
2018-02-23T18:02:53.753Z,13.43
2018-02-23T18:05:23.111Z,15.40
2018-02-23T18:07:51.739Z,15.15
2018-02-23T18:10:20.454Z,14.18
2018-02-23T18:12:49.060Z,12.70
2018-02-23T18:15:17.598Z,14.18
2018-02-23T18:17:46.892Z,13.50
2018-02-23T18:20:16.448Z,14.27
2018-02-23T18:22:45.129Z,12.37
2018-02-23T18:25:13.904Z,14.07
2018-02-23T18:27:42.429Z,13.18
2018-02-23T18:30:12.051Z,15.20
2018-02-23T18:32:40.714Z,15.05
2018-02-23T18:35:10.010Z,13.40
2018-02-23T18:37:38.702Z,13.85
2018-02-23T18:40:07.377Z,12.93
2018-02-23T18:42:38.561Z,14.95
2018-02-23T18:45:07.300Z,14.70
2018-02-23T18:47:36.630Z,13.57
2018-02-23T18:50:06.053Z,16.23
2018-02-23T18:52:35.486Z,14.13
2018-02-23T18:55:04.298Z,14.32
2018-02-23T18:57:32.809Z,13.50
2018-02-23T19:00:02.404Z,15.02
2018-02-23T19:02:31.098Z,18.90
2018-02-23T19:04:59.582Z,15.35
2018-02-23T19:07:29.052Z,16.02
2018-02-23T19:09:57.841Z,14.13
2018-02-23T19:12:26.388Z,15.18
2018-02-23T19:14:55.413Z,15.63
2018-02-23T19:17:24.392Z,14.57
2018-02-23T19:19:53.799Z,14.75
2018-02-23T19:22:23.121Z,13.50
2018-02-23T19:24:52.690Z,13.62
2018-02-23T19:27:21.749Z,16.08
2018-02-23T19:29:50.610Z,14.73
2018-02-23T19:32:19.122Z,15.57
2018-02-23T19:34:48.465Z,16.00
2018-02-23T19:37:17.303Z,14.70
2018-02-23T19:39:47.297Z,14.45
2018-02-23T19:42:18.619Z,15.20
2018-02-23T19:44:51.703Z,16.70
2018-02-23T19:47:21.326Z,15.00
2018-02-23T19:49:50.956Z,15.35
2018-02-23T19:52:19.710Z,16.87
2018-02-23T19:54:48.347Z,15.38
2018-02-23T19:57:17.574Z,17.00
2018-02-23T19:59:46.372Z,16.85
2018-02-23T20:02:15.734Z,15.68
2018-02-23T20:04:44.094Z,15.65
2018-02-23T20:07:13.203Z,15.00
2018-02-23T20:09:41.586Z,14.35
2018-02-23T20:12:10.170Z,16.33
2018-02-23T20:14:39.124Z,16.15
2018-02-23T20:17:07.451Z,15.63
2018-02-23T20:19:36.153Z,16.25
2018-02-23T20:22:04.804Z,16.65
2018-02-23T20:24:33.572Z,17.08
2018-02-23T20:27:01.931Z,16.58
2018-02-23T20:29:30.563Z,16.92
2018-02-23T20:31:58.926Z,15.32
2018-02-23T20:34:28.251Z,16.10
2018-02-23T20:36:57.129Z,15.98
2018-02-23T20:39:25.696Z,15.63
2018-02-23T20:41:54.563Z,15.70
2018-02-23T20:44:23.729Z,18.70
2018-02-23T20:46:52.444Z,15.73
2018-02-23T20:49:21.788Z,18.40
2018-02-23T20:51:50.434Z,18.33
2018-02-23T20:54:18.932Z,17.10
2018-02-23T20:56:47.452Z,18.42
2018-02-23T20:59:15.896Z,17.12
2018-02-23T21:01:44.705Z,17.58
2018-02-23T21:04:13.121Z,19.85
2018-02-23T21:06:41.918Z,20.25
2018-02-23T21:09:11.668Z,19.05
2018-02-23T21:11:40.151Z,19.42
2018-02-23T21:14:08.793Z,18.33
2018-02-23T21:16:40.498Z,18.33
2018-02-23T21:19:09.056Z,17.23
2018-02-23T21:21:37.803Z,18.48
2018-02-23T21:24:07.547Z,18.55
2018-02-23T21:26:36.226Z,19.15
2018-02-23T21:29:04.801Z,17.87
2018-02-23T21:31:33.422Z,18.92
2018-02-23T21:34:01.957Z,20.48
2018-02-23T21:36:31.096Z,19.02
2018-02-23T21:38:59.475Z,19.48
2018-02-23T21:41:27.987Z,18.75
2018-02-23T21:43:57.479Z,18.10
2018-02-23T21:46:26.200Z,19.17
2018-02-23T21:48:56.263Z,17.48
2018-02-23T21:51:25.241Z,19.52
2018-02-23T21:53:54.074Z,19.12
2018-02-23T21:56:23.995Z,16.67
2018-02-23T21:58:52.531Z,18.40
2018-02-23T22:01:21.107Z,19.12
2018-02-23T22:03:49.705Z,19.42
2018-02-23T22:06:19.378Z,18.85
2018-02-23T22:08:49.230Z,18.73
2018-02-23T22:11:19.501Z,18.15
2018-02-23T22:13:48.236Z,19.20
2018-02-23T22:16:17.464Z,17.55
2018-02-23T22:18:45.813Z,19.98
2018-02-23T22:21:14.620Z,18.42
2018-02-23T22:23:42.964Z,20.00
2018-02-23T22:26:11.953Z,19.15
2018-02-23T22:28:40.326Z,18.10
2018-02-23T22:31:09.223Z,22.42
2018-02-23T22:33:37.599Z,20.42
2018-02-23T22:36:06.149Z,19.42
2018-02-23T22:38:35.292Z,18.87
2018-02-23T22:41:03.644Z,18.95
2018-02-23T22:43:31.957Z,16.87
2018-02-23T22:46:00.309Z,16.73
2018-02-23T22:48:28.791Z,16.42
2018-02-23T22:50:57.230Z,18.58
2018-02-23T22:53:26.309Z,18.83
2018-02-23T22:55:54.661Z,18.25
2018-02-23T22:58:23.124Z,17.45
2018-02-23T23:00:51.842Z,18.23
2018-02-23T23:03:20.286Z,16.60
2018-02-23T23:05:48.859Z,18.17
2018-02-23T23:10:51.981Z,20.70
2018-02-23T23:13:20.344Z,20.15
2018-02-23T23:15:50.127Z,18.75
2018-02-23T23:18:22.689Z,18.55
2018-02-23T23:20:51.183Z,18.15
2018-02-23T23:23:19.545Z,18.15
2018-02-23T23:25:47.906Z,17.50
2018-02-23T23:28:17.946Z,18.25
2018-02-23T23:30:46.345Z,19.12
2018-02-23T23:33:15.340Z,18.55
2018-02-23T23:35:43.692Z,18.05
2018-02-23T23:38:12.762Z,18.83
2018-02-23T23:40:41.082Z,18.23
2018-02-23T23:43:09.423Z,17.90
2018-02-23T23:45:37.882Z,18.70
2018-02-23T23:48:06.289Z,19.52
2018-02-23T23:50:35.062Z,17.52
2018-02-23T23:53:03.429Z,17.35
2018-02-23T23:55:32.642Z,17.65
2018-02-23T23:58:00.953Z,17.02
